sensor_id;sensor_type;location;lat;lon;timestamp;temperature;humidity
10538;DHT22;5317;49.048;8.468;2023-01-16T00:01:26;10.40;54.30
10538;DHT22;5317;49.048;8.468;2023-01-16T00:03:53;10.30;54.20
10538;DHT22;5317;49.048;8.468;2023-01-16T00:06:20;10.30;54.40
10538;DHT22;5317;49.048;8.468;2023-01-16T00:08:49;10.30;54.30
10538;DHT22;5317;49.048;8.468;2023-01-16T00:11:16;10.40;54.40
10538;DHT22;5317;49.048;8.468;2023-01-16T00:13:43;10.50;54.20
10538;DHT22;5317;49.048;8.468;2023-01-16T00:16:10;10.50;54.00
10538;DHT22;5317;49.048;8.468;2023-01-16T00:18:36;10.50;54.00
10538;DHT22;5317;49.048;8.468;2023-01-16T00:21:03;10.50;54.10
10538;DHT22;5317;49.048;8.468;2023-01-16T00:23:30;10.60;54.20
10538;DHT22;5317;49.048;8.468;2023-01-16T00:25:59;10.60;54.00
10538;DHT22;5317;49.048;8.468;2023-01-16T00:28:25;10.60;54.00
10538;DHT22;5317;49.048;8.468;2023-01-16T00:30:52;10.60;54.00
10538;DHT22;5317;49.048;8.468;2023-01-16T00:33:19;10.60;54.00
10538;DHT22;5317;49.048;8.468;2023-01-16T00:35:46;10.60;54.00
10538;DHT22;5317;49.048;8.468;2023-01-16T00:38:14;10.60;54.00
10538;DHT22;5317;49.048;8.468;2023-01-16T00:40:41;10.70;54.00
10538;DHT22;5317;49.048;8.468;2023-01-16T00:43:09;10.60;53.90
10538;DHT22;5317;49.048;8.468;2023-01-16T00:45:36;10.60;53.90
10538;DHT22;5317;49.048;8.468;2023-01-16T00:48:03;10.60;54.00
10538;DHT22;5317;49.048;8.468;2023-01-16T00:50:30;10.60;54.00
10538;DHT22;5317;49.048;8.468;2023-01-16T00:52:57;10.70;53.80
10538;DHT22;5317;49.048;8.468;2023-01-16T00:55:24;10.70;53.70
10538;DHT22;5317;49.048;8.468;2023-01-16T00:57:51;10.80;53.60
10538;DHT22;5317;49.048;8.468;2023-01-16T01:00:19;10.70;53.70
10538;DHT22;5317;49.048;8.468;2023-01-16T01:02:47;10.70;53.90
10538;DHT22;5317;49.048;8.468;2023-01-16T01:05:14;10.70;53.60
10538;DHT22;5317;49.048;8.468;2023-01-16T01:07:41;10.70;53.70
10538;DHT22;5317;49.048;8.468;2023-01-16T01:10:09;10.70;53.70
10538;DHT22;5317;49.048;8.468;2023-01-16T01:12:36;10.70;53.80
10538;DHT22;5317;49.048;8.468;2023-01-16T01:15:03;10.60;53.80
10538;DHT22;5317;49.048;8.468;2023-01-16T01:17:32;10.70;54.10
10538;DHT22;5317;49.048;8.468;2023-01-16T01:19:59;10.70;53.90
10538;DHT22;5317;49.048;8.468;2023-01-16T01:22:25;10.70;53.60
10538;DHT22;5317;49.048;8.468;2023-01-16T01:24:52;10.70;53.70
10538;DHT22;5317;49.048;8.468;2023-01-16T01:27:20;10.70;53.60
10538;DHT22;5317;49.048;8.468;2023-01-16T01:29:46;10.70;53.70
10538;DHT22;5317;49.048;8.468;2023-01-16T01:32:13;10.60;53.90
10538;DHT22;5317;49.048;8.468;2023-01-16T01:34:41;10.60;53.80
10538;DHT22;5317;49.048;8.468;2023-01-16T01:37:08;10.60;54.00
10538;DHT22;5317;49.048;8.468;2023-01-16T01:39:35;10.70;54.00
10538;DHT22;5317;49.048;8.468;2023-01-16T01:42:02;10.60;53.90
10538;DHT22;5317;49.048;8.468;2023-01-16T01:44:52;10.70;54.00
10538;DHT22;5317;49.048;8.468;2023-01-16T01:47:22;10.60;53.60
10538;DHT22;5317;49.048;8.468;2023-01-16T01:49:51;10.60;53.60
10538;DHT22;5317;49.048;8.468;2023-01-16T01:52:20;10.60;53.70
10538;DHT22;5317;49.048;8.468;2023-01-16T01:54:52;10.60;53.80
10538;DHT22;5317;49.048;8.468;2023-01-16T01:57:23;10.50;53.70
10538;DHT22;5317;49.048;8.468;2023-01-16T01:59:55;10.60;53.90
10538;DHT22;5317;49.048;8.468;2023-01-16T02:02:28;10.60;54.00
10538;DHT22;5317;49.048;8.468;2023-01-16T02:04:58;10.60;53.90
10538;DHT22;5317;49.048;8.468;2023-01-16T02:07:26;10.60;53.90
10538;DHT22;5317;49.048;8.468;2023-01-16T02:09:59;10.60;53.90
10538;DHT22;5317;49.048;8.468;2023-01-16T02:12:28;10.50;53.90
10538;DHT22;5317;49.048;8.468;2023-01-16T02:14:56;10.50;53.90
10538;DHT22;5317;49.048;8.468;2023-01-16T02:17:23;10.50;54.00
10538;DHT22;5317;49.048;8.468;2023-01-16T02:20:18;10.60;54.00
10538;DHT22;5317;49.048;8.468;2023-01-16T02:23:15;10.60;54.00
10538;DHT22;5317;49.048;8.468;2023-01-16T02:26:20;10.50;53.90
10538;DHT22;5317;49.048;8.468;2023-01-16T02:31:55;10.60;54.00
10538;DHT22;5317;49.048;8.468;2023-01-16T02:34:38;10.70;54.10
10538;DHT22;5317;49.048;8.468;2023-01-16T02:37:19;10.70;54.10
10538;DHT22;5317;49.048;8.468;2023-01-16T02:39:56;10.70;54.10
10538;DHT22;5317;49.048;8.468;2023-01-16T02:42:32;10.80;54.10
10538;DHT22;5317;49.048;8.468;2023-01-16T02:45:03;10.80;53.90
10538;DHT22;5317;49.048;8.468;2023-01-16T02:47:39;10.80;53.80
10538;DHT22;5317;49.048;8.468;2023-01-16T02:50:12;10.90;53.80
10538;DHT22;5317;49.048;8.468;2023-01-16T02:52:46;10.90;53.50
10538;DHT22;5317;49.048;8.468;2023-01-16T02:55:20;10.90;53.50
10538;DHT22;5317;49.048;8.468;2023-01-16T02:57:53;11.00;53.50
10538;DHT22;5317;49.048;8.468;2023-01-16T03:00:22;11.00;53.30
10538;DHT22;5317;49.048;8.468;2023-01-16T03:02:50;11.10;53.40
10538;DHT22;5317;49.048;8.468;2023-01-16T03:05:17;11.10;53.20
10538;DHT22;5317;49.048;8.468;2023-01-16T03:10:53;11.10;53.10
10538;DHT22;5317;49.048;8.468;2023-01-16T03:13:32;11.10;52.90
10538;DHT22;5317;49.048;8.468;2023-01-16T03:16:09;11.10;53.10
10538;DHT22;5317;49.048;8.468;2023-01-16T03:18:49;11.10;53.00
10538;DHT22;5317;49.048;8.468;2023-01-16T03:21:25;11.10;52.90
10538;DHT22;5317;49.048;8.468;2023-01-16T03:23:56;11.00;53.10
10538;DHT22;5317;49.048;8.468;2023-01-16T03:26:27;11.00;53.10
10538;DHT22;5317;49.048;8.468;2023-01-16T03:29:04;11.00;53.10
10538;DHT22;5317;49.048;8.468;2023-01-16T03:31:40;11.10;53.30
10538;DHT22;5317;49.048;8.468;2023-01-16T03:34:14;11.10;53.20
10538;DHT22;5317;49.048;8.468;2023-01-16T03:36:49;11.20;53.20
10538;DHT22;5317;49.048;8.468;2023-01-16T03:39:21;11.10;53.00
10538;DHT22;5317;49.048;8.468;2023-01-16T03:41:52;11.10;53.10
10538;DHT22;5317;49.048;8.468;2023-01-16T03:44:24;11.20;53.00
10538;DHT22;5317;49.048;8.468;2023-01-16T03:46:56;11.20;52.90
10538;DHT22;5317;49.048;8.468;2023-01-16T03:49:29;11.30;52.70
10538;DHT22;5317;49.048;8.468;2023-01-16T03:51:58;11.30;52.70
10538;DHT22;5317;49.048;8.468;2023-01-16T03:54:32;11.40;52.70
10538;DHT22;5317;49.048;8.468;2023-01-16T03:57:07;11.50;52.80
10538;DHT22;5317;49.048;8.468;2023-01-16T03:59:37;11.50;52.80
10538;DHT22;5317;49.048;8.468;2023-01-16T04:02:09;11.60;52.80
10538;DHT22;5317;49.048;8.468;2023-01-16T04:04:43;11.60;53.30
10538;DHT22;5317;49.048;8.468;2023-01-16T04:07:17;11.60;52.80
10538;DHT22;5317;49.048;8.468;2023-01-16T04:09:51;11.60;52.60
10538;DHT22;5317;49.048;8.468;2023-01-16T04:12:22;11.70;52.60
10538;DHT22;5317;49.048;8.468;2023-01-16T04:14:56;11.70;52.60
10538;DHT22;5317;49.048;8.468;2023-01-16T04:17:25;11.70;52.60
10538;DHT22;5317;49.048;8.468;2023-01-16T04:19:54;11.70;52.70
10538;DHT22;5317;49.048;8.468;2023-01-16T04:22:22;11.70;52.70
10538;DHT22;5317;49.048;8.468;2023-01-16T04:24:51;11.70;52.80
10538;DHT22;5317;49.048;8.468;2023-01-16T04:27:19;11.70;52.80
10538;DHT22;5317;49.048;8.468;2023-01-16T04:29:46;11.70;52.90
10538;DHT22;5317;49.048;8.468;2023-01-16T04:32:13;11.60;52.80
10538;DHT22;5317;49.048;8.468;2023-01-16T04:34:40;11.60;52.80
10538;DHT22;5317;49.048;8.468;2023-01-16T04:37:09;11.60;52.90
10538;DHT22;5317;49.048;8.468;2023-01-16T04:39:38;11.60;52.90
10538;DHT22;5317;49.048;8.468;2023-01-16T04:42:06;11.60;52.90
10538;DHT22;5317;49.048;8.468;2023-01-16T04:44:33;11.60;53.00
10538;DHT22;5317;49.048;8.468;2023-01-16T04:47:00;11.70;53.10
10538;DHT22;5317;49.048;8.468;2023-01-16T04:49:26;11.60;53.00
10538;DHT22;5317;49.048;8.468;2023-01-16T04:51:53;11.60;53.10
10538;DHT22;5317;49.048;8.468;2023-01-16T04:54:21;11.60;53.10
10538;DHT22;5317;49.048;8.468;2023-01-16T04:56:48;11.60;53.30
10538;DHT22;5317;49.048;8.468;2023-01-16T04:59:15;11.60;53.50
10538;DHT22;5317;49.048;8.468;2023-01-16T05:01:43;11.60;53.50
10538;DHT22;5317;49.048;8.468;2023-01-16T05:04:12;11.60;53.60
10538;DHT22;5317;49.048;8.468;2023-01-16T05:06:39;11.60;53.60
10538;DHT22;5317;49.048;8.468;2023-01-16T05:09:07;11.60;53.70
10538;DHT22;5317;49.048;8.468;2023-01-16T05:11:35;11.60;53.90
10538;DHT22;5317;49.048;8.468;2023-01-16T05:14:03;11.50;53.60
10538;DHT22;5317;49.048;8.468;2023-01-16T05:16:32;11.50;53.70
10538;DHT22;5317;49.048;8.468;2023-01-16T05:18:59;11.40;54.50
10538;DHT22;5317;49.048;8.468;2023-01-16T05:21:26;11.30;54.00
10538;DHT22;5317;49.048;8.468;2023-01-16T05:23:53;11.30;54.20
10538;DHT22;5317;49.048;8.468;2023-01-16T05:26:20;11.20;54.30
10538;DHT22;5317;49.048;8.468;2023-01-16T05:28:48;11.20;54.30
10538;DHT22;5317;49.048;8.468;2023-01-16T05:31:15;11.10;54.40
10538;DHT22;5317;49.048;8.468;2023-01-16T05:33:42;11.00;54.30
10538;DHT22;5317;49.048;8.468;2023-01-16T05:36:10;11.00;54.50
10538;DHT22;5317;49.048;8.468;2023-01-16T05:38:36;10.90;54.40
10538;DHT22;5317;49.048;8.468;2023-01-16T05:41:03;10.90;54.70
10538;DHT22;5317;49.048;8.468;2023-01-16T05:43:30;10.80;54.50
10538;DHT22;5317;49.048;8.468;2023-01-16T05:45:59;10.70;54.60
10538;DHT22;5317;49.048;8.468;2023-01-16T05:48:26;10.60;54.60
10538;DHT22;5317;49.048;8.468;2023-01-16T05:50:53;10.60;54.80
10538;DHT22;5317;49.048;8.468;2023-01-16T05:53:23;10.50;54.80
10538;DHT22;5317;49.048;8.468;2023-01-16T05:55:53;10.50;55.00
10538;DHT22;5317;49.048;8.468;2023-01-16T05:58:20;10.50;54.80
10538;DHT22;5317;49.048;8.468;2023-01-16T06:00:47;10.50;54.90
10538;DHT22;5317;49.048;8.468;2023-01-16T06:03:16;10.50;54.90
10538;DHT22;5317;49.048;8.468;2023-01-16T06:05:43;10.60;54.90
10538;DHT22;5317;49.048;8.468;2023-01-16T06:08:09;10.60;54.60
10538;DHT22;5317;49.048;8.468;2023-01-16T06:10:36;10.50;54.60
10538;DHT22;5317;49.048;8.468;2023-01-16T06:13:04;10.50;54.70
10538;DHT22;5317;49.048;8.468;2023-01-16T06:15:31;10.50;54.70
10538;DHT22;5317;49.048;8.468;2023-01-16T06:17:58;10.50;55.20
10538;DHT22;5317;49.048;8.468;2023-01-16T06:20:26;10.60;54.50
10538;DHT22;5317;49.048;8.468;2023-01-16T06:22:53;10.60;54.40
10538;DHT22;5317;49.048;8.468;2023-01-16T06:25:20;10.60;54.40
10538;DHT22;5317;49.048;8.468;2023-01-16T06:27:48;10.40;54.30
10538;DHT22;5317;49.048;8.468;2023-01-16T06:30:15;10.40;54.50
10538;DHT22;5317;49.048;8.468;2023-01-16T06:32:42;10.40;54.60
10538;DHT22;5317;49.048;8.468;2023-01-16T06:35:10;10.40;54.60
10538;DHT22;5317;49.048;8.468;2023-01-16T06:37:38;10.30;54.60
10538;DHT22;5317;49.048;8.468;2023-01-16T06:40:06;10.40;54.70
10538;DHT22;5317;49.048;8.468;2023-01-16T06:42:33;10.40;54.60
10538;DHT22;5317;49.048;8.468;2023-01-16T06:45:00;10.40;54.60
10538;DHT22;5317;49.048;8.468;2023-01-16T06:47:27;10.50;54.60
10538;DHT22;5317;49.048;8.468;2023-01-16T06:49:54;10.50;54.60
10538;DHT22;5317;49.048;8.468;2023-01-16T06:52:21;10.50;54.60
10538;DHT22;5317;49.048;8.468;2023-01-16T06:54:49;10.50;54.40
10538;DHT22;5317;49.048;8.468;2023-01-16T06:57:16;10.50;54.40
10538;DHT22;5317;49.048;8.468;2023-01-16T06:59:43;10.50;54.40
10538;DHT22;5317;49.048;8.468;2023-01-16T07:02:10;10.40;54.20
10538;DHT22;5317;49.048;8.468;2023-01-16T07:04:36;10.40;54.20
10538;DHT22;5317;49.048;8.468;2023-01-16T07:07:03;10.40;54.20
10538;DHT22;5317;49.048;8.468;2023-01-16T07:09:30;10.30;54.30
10538;DHT22;5317;49.048;8.468;2023-01-16T07:11:59;10.10;54.20
10538;DHT22;5317;49.048;8.468;2023-01-16T07:14:26;10.30;54.50
10538;DHT22;5317;49.048;8.468;2023-01-16T07:17:10;10.30;54.40
10538;DHT22;5317;49.048;8.468;2023-01-16T07:19:55;10.30;54.30
10538;DHT22;5317;49.048;8.468;2023-01-16T07:22:39;10.30;54.30
10538;DHT22;5317;49.048;8.468;2023-01-16T07:25:11;10.30;54.30
10538;DHT22;5317;49.048;8.468;2023-01-16T07:27:41;10.20;54.30
10538;DHT22;5317;49.048;8.468;2023-01-16T07:30:09;10.10;54.30
10538;DHT22;5317;49.048;8.468;2023-01-16T07:32:37;10.00;54.50
10538;DHT22;5317;49.048;8.468;2023-01-16T07:35:05;10.00;54.80
10538;DHT22;5317;49.048;8.468;2023-01-16T07:37:33;10.00;54.60
10538;DHT22;5317;49.048;8.468;2023-01-16T07:39:59;10.00;55.20
10538;DHT22;5317;49.048;8.468;2023-01-16T07:42:26;10.00;54.60
10538;DHT22;5317;49.048;8.468;2023-01-16T07:44:55;10.00;54.40
10538;DHT22;5317;49.048;8.468;2023-01-16T07:47:21;10.00;54.90
10538;DHT22;5317;49.048;8.468;2023-01-16T07:49:48;10.10;54.50
10538;DHT22;5317;49.048;8.468;2023-01-16T07:52:15;10.10;54.40
10538;DHT22;5317;49.048;8.468;2023-01-16T07:54:42;10.10;54.20
10538;DHT22;5317;49.048;8.468;2023-01-16T07:57:09;10.20;54.10
10538;DHT22;5317;49.048;8.468;2023-01-16T07:59:36;10.30;54.40
10538;DHT22;5317;49.048;8.468;2023-01-16T08:02:05;10.30;53.80
10538;DHT22;5317;49.048;8.468;2023-01-16T08:04:32;10.30;53.80
10538;DHT22;5317;49.048;8.468;2023-01-16T08:06:59;10.30;53.80
10538;DHT22;5317;49.048;8.468;2023-01-16T08:09:26;10.30;53.80
10538;DHT22;5317;49.048;8.468;2023-01-16T08:11:53;10.30;53.70
10538;DHT22;5317;49.048;8.468;2023-01-16T08:14:20;10.30;53.50
10538;DHT22;5317;49.048;8.468;2023-01-16T08:16:46;10.30;53.80
10538;DHT22;5317;49.048;8.468;2023-01-16T08:19:15;10.30;53.70
10538;DHT22;5317;49.048;8.468;2023-01-16T08:21:42;10.30;53.30
10538;DHT22;5317;49.048;8.468;2023-01-16T08:24:09;10.40;53.30
10538;DHT22;5317;49.048;8.468;2023-01-16T08:26:38;10.40;53.40
10538;DHT22;5317;49.048;8.468;2023-01-16T08:29:05;10.40;53.40
10538;DHT22;5317;49.048;8.468;2023-01-16T08:31:33;10.40;53.30
10538;DHT22;5317;49.048;8.468;2023-01-16T08:34:00;10.40;53.10
10538;DHT22;5317;49.048;8.468;2023-01-16T08:36:28;10.50;53.40
10538;DHT22;5317;49.048;8.468;2023-01-16T08:38:55;10.50;53.20
10538;DHT22;5317;49.048;8.468;2023-01-16T08:41:22;10.60;53.20
10538;DHT22;5317;49.048;8.468;2023-01-16T08:44:07;10.60;53.00
10538;DHT22;5317;49.048;8.468;2023-01-16T08:46:55;10.60;53.00
10538;DHT22;5317;49.048;8.468;2023-01-16T08:49:40;10.60;52.80
10538;DHT22;5317;49.048;8.468;2023-01-16T08:52:29;10.60;53.30
10538;DHT22;5317;49.048;8.468;2023-01-16T08:54:57;10.50;52.90
10538;DHT22;5317;49.048;8.468;2023-01-16T08:57:24;10.50;53.10
10538;DHT22;5317;49.048;8.468;2023-01-16T08:59:51;10.40;53.80
10538;DHT22;5317;49.048;8.468;2023-01-16T09:02:18;10.40;54.80
10538;DHT22;5317;49.048;8.468;2023-01-16T09:04:45;10.50;55.10
10538;DHT22;5317;49.048;8.468;2023-01-16T09:07:13;10.60;54.50
10538;DHT22;5317;49.048;8.468;2023-01-16T09:09:42;10.70;54.10
10538;DHT22;5317;49.048;8.468;2023-01-16T09:12:09;10.80;53.40
10538;DHT22;5317;49.048;8.468;2023-01-16T09:14:54;10.90;53.80
10538;DHT22;5317;49.048;8.468;2023-01-16T09:17:22;10.90;52.80
10538;DHT22;5317;49.048;8.468;2023-01-16T09:19:50;11.00;52.30
10538;DHT22;5317;49.048;8.468;2023-01-16T09:22:17;11.10;52.50
10538;DHT22;5317;49.048;8.468;2023-01-16T09:24:45;11.10;52.30
10538;DHT22;5317;49.048;8.468;2023-01-16T09:27:12;11.20;52.10
10538;DHT22;5317;49.048;8.468;2023-01-16T09:29:40;11.20;52.40
10538;DHT22;5317;49.048;8.468;2023-01-16T09:32:07;11.20;52.10
10538;DHT22;5317;49.048;8.468;2023-01-16T09:34:35;11.20;51.90
10538;DHT22;5317;49.048;8.468;2023-01-16T09:37:02;11.20;51.50
10538;DHT22;5317;49.048;8.468;2023-01-16T09:39:29;11.30;51.50
10538;DHT22;5317;49.048;8.468;2023-01-16T09:42:08;11.30;51.30
10538;DHT22;5317;49.048;8.468;2023-01-16T09:45:01;11.40;51.40
10538;DHT22;5317;49.048;8.468;2023-01-16T09:47:29;11.40;51.70
10538;DHT22;5317;49.048;8.468;2023-01-16T09:50:01;11.30;51.90
10538;DHT22;5317;49.048;8.468;2023-01-16T09:52:31;11.30;52.00
10538;DHT22;5317;49.048;8.468;2023-01-16T09:55:38;11.20;52.20
10538;DHT22;5317;49.048;8.468;2023-01-16T09:58:27;11.20;52.40
10538;DHT22;5317;49.048;8.468;2023-01-16T10:01:06;11.10;52.70
10538;DHT22;5317;49.048;8.468;2023-01-16T10:03:34;11.10;52.60
10538;DHT22;5317;49.048;8.468;2023-01-16T10:06:20;11.10;52.70
10538;DHT22;5317;49.048;8.468;2023-01-16T10:09:09;11.20;52.90
10538;DHT22;5317;49.048;8.468;2023-01-16T10:11:42;11.10;52.90
10538;DHT22;5317;49.048;8.468;2023-01-16T10:14:27;11.10;53.40
10538;DHT22;5317;49.048;8.468;2023-01-16T10:17:09;11.10;53.80
10538;DHT22;5317;49.048;8.468;2023-01-16T10:19:49;11.00;54.30
10538;DHT22;5317;49.048;8.468;2023-01-16T10:22:29;11.00;54.70
10538;DHT22;5317;49.048;8.468;2023-01-16T10:25:11;11.00;54.90
10538;DHT22;5317;49.048;8.468;2023-01-16T10:28:09;11.10;54.70
10538;DHT22;5317;49.048;8.468;2023-01-16T10:30:44;11.00;54.70
10538;DHT22;5317;49.048;8.468;2023-01-16T10:33:17;11.00;54.90
10538;DHT22;5317;49.048;8.468;2023-01-16T10:35:48;10.90;54.80
10538;DHT22;5317;49.048;8.468;2023-01-16T10:38:22;11.00;55.20
10538;DHT22;5317;49.048;8.468;2023-01-16T10:40:54;11.00;55.30
10538;DHT22;5317;49.048;8.468;2023-01-16T10:43:31;11.00;55.30
10538;DHT22;5317;49.048;8.468;2023-01-16T10:46:29;11.00;55.10
10538;DHT22;5317;49.048;8.468;2023-01-16T10:49:15;11.00;55.30
10538;DHT22;5317;49.048;8.468;2023-01-16T10:51:56;10.80;55.60
10538;DHT22;5317;49.048;8.468;2023-01-16T10:54:24;10.80;55.70
10538;DHT22;5317;49.048;8.468;2023-01-16T11:22:55;10.80;56.10
10538;DHT22;5317;49.048;8.468;2023-01-16T11:25:25;10.80;56.10
10538;DHT22;5317;49.048;8.468;2023-01-16T11:27:58;10.90;56.30
10538;DHT22;5317;49.048;8.468;2023-01-16T11:30:30;11.00;56.10
10538;DHT22;5317;49.048;8.468;2023-01-16T11:32:58;11.00;55.90
10538;DHT22;5317;49.048;8.468;2023-01-16T11:35:30;11.00;56.20
10538;DHT22;5317;49.048;8.468;2023-01-16T11:38:00;11.10;56.20
10538;DHT22;5317;49.048;8.468;2023-01-16T11:40:31;11.10;56.30
10538;DHT22;5317;49.048;8.468;2023-01-16T11:42:58;11.10;56.30
10538;DHT22;5317;49.048;8.468;2023-01-16T11:45:55;11.20;56.10
10538;DHT22;5317;49.048;8.468;2023-01-16T11:48:38;11.30;56.20
10538;DHT22;5317;49.048;8.468;2023-01-16T11:51:08;11.40;55.90
10538;DHT22;5317;49.048;8.468;2023-01-16T11:53:38;11.50;55.80
10538;DHT22;5317;49.048;8.468;2023-01-16T11:56:19;11.70;55.60
10538;DHT22;5317;49.048;8.468;2023-01-16T11:58:59;11.80;55.50
10538;DHT22;5317;49.048;8.468;2023-01-16T12:01:44;11.80;55.30
10538;DHT22;5317;49.048;8.468;2023-01-16T12:04:36;11.80;55.20
10538;DHT22;5317;49.048;8.468;2023-01-16T12:07:33;11.90;55.40
10538;DHT22;5317;49.048;8.468;2023-01-16T12:10:14;12.00;55.20
10538;DHT22;5317;49.048;8.468;2023-01-16T12:12:51;12.00;55.20
10538;DHT22;5317;49.048;8.468;2023-01-16T12:15:42;12.00;55.10
10538;DHT22;5317;49.048;8.468;2023-01-16T12:18:19;12.10;55.20
10538;DHT22;5317;49.048;8.468;2023-01-16T12:20:53;12.20;55.20
10538;DHT22;5317;49.048;8.468;2023-01-16T12:26:27;12.40;54.70
10538;DHT22;5317;49.048;8.468;2023-01-16T12:29:09;12.50;54.70
10538;DHT22;5317;49.048;8.468;2023-01-16T12:31:52;12.50;54.60
10538;DHT22;5317;49.048;8.468;2023-01-16T12:34:50;12.80;54.60
10538;DHT22;5317;49.048;8.468;2023-01-16T12:37:32;13.40;53.90
10538;DHT22;5317;49.048;8.468;2023-01-16T12:40:18;13.60;53.00
10538;DHT22;5317;49.048;8.468;2023-01-16T12:42:59;13.80;52.80
10538;DHT22;5317;49.048;8.468;2023-01-16T12:45:52;14.50;52.20
10538;DHT22;5317;49.048;8.468;2023-01-16T12:48:46;14.80;49.70
10538;DHT22;5317;49.048;8.468;2023-01-16T12:51:34;15.50;47.20
10538;DHT22;5317;49.048;8.468;2023-01-16T12:54:30;16.80;45.30
10538;DHT22;5317;49.048;8.468;2023-01-16T12:57:21;16.20;44.30
10538;DHT22;5317;49.048;8.468;2023-01-16T12:59:56;16.30;44.70
10538;DHT22;5317;49.048;8.468;2023-01-16T13:02:29;16.60;44.80
10538;DHT22;5317;49.048;8.468;2023-01-16T13:05:02;17.20;44.00
10538;DHT22;5317;49.048;8.468;2023-01-16T13:07:33;18.10;42.90
10538;DHT22;5317;49.048;8.468;2023-01-16T13:10:10;17.50;42.00
10538;DHT22;5317;49.048;8.468;2023-01-16T13:12:56;17.70;41.50
10538;DHT22;5317;49.048;8.468;2023-01-16T13:16:13;16.80;42.90
10538;DHT22;5317;49.048;8.468;2023-01-16T13:18:52;15.80;43.60
10538;DHT22;5317;49.048;8.468;2023-01-16T13:21:26;15.20;44.50
10538;DHT22;5317;49.048;8.468;2023-01-16T13:23:55;14.80;45.20
10538;DHT22;5317;49.048;8.468;2023-01-16T13:26:25;14.50;45.70
10538;DHT22;5317;49.048;8.468;2023-01-16T13:28:57;14.30;46.30
10538;DHT22;5317;49.048;8.468;2023-01-16T13:31:31;13.90;46.30
10538;DHT22;5317;49.048;8.468;2023-01-16T13:34:03;13.70;46.70
10538;DHT22;5317;49.048;8.468;2023-01-16T13:37:05;13.50;47.50
10538;DHT22;5317;49.048;8.468;2023-01-16T13:39:59;13.30;47.20
10538;DHT22;5317;49.048;8.468;2023-01-16T13:42:31;13.30;47.10
10538;DHT22;5317;49.048;8.468;2023-01-16T13:45:02;13.20;47.90
10538;DHT22;5317;49.048;8.468;2023-01-16T13:47:51;13.20;47.90
10538;DHT22;5317;49.048;8.468;2023-01-16T13:50:23;13.10;47.90
10538;DHT22;5317;49.048;8.468;2023-01-16T13:52:54;13.00;48.00
10538;DHT22;5317;49.048;8.468;2023-01-16T13:55:27;13.20;48.30
10538;DHT22;5317;49.048;8.468;2023-01-16T13:57:56;13.30;48.30
10538;DHT22;5317;49.048;8.468;2023-01-16T14:00:24;13.40;48.00
10538;DHT22;5317;49.048;8.468;2023-01-16T14:03:15;13.50;47.80
10538;DHT22;5317;49.048;8.468;2023-01-16T14:05:48;14.20;47.10
10538;DHT22;5317;49.048;8.468;2023-01-16T14:08:27;14.40;46.40
10538;DHT22;5317;49.048;8.468;2023-01-16T14:11:24;14.50;46.10
10538;DHT22;5317;49.048;8.468;2023-01-16T14:14:30;14.80;45.50
10538;DHT22;5317;49.048;8.468;2023-01-16T14:17:16;14.50;45.40
10538;DHT22;5317;49.048;8.468;2023-01-16T14:19:56;14.20;46.00
10538;DHT22;5317;49.048;8.468;2023-01-16T14:22:32;13.90;46.30
10538;DHT22;5317;49.048;8.468;2023-01-16T14:25:20;13.80;46.80
10538;DHT22;5317;49.048;8.468;2023-01-16T14:27:51;13.60;46.50
10538;DHT22;5317;49.048;8.468;2023-01-16T14:30:22;13.40;47.50
10538;DHT22;5317;49.048;8.468;2023-01-16T14:32:53;13.30;47.40
10538;DHT22;5317;49.048;8.468;2023-01-16T14:35:24;13.30;47.80
10538;DHT22;5317;49.048;8.468;2023-01-16T14:37:57;13.30;47.60
10538;DHT22;5317;49.048;8.468;2023-01-16T14:40:27;13.30;48.00
10538;DHT22;5317;49.048;8.468;2023-01-16T14:43:13;13.20;48.20
10538;DHT22;5317;49.048;8.468;2023-01-16T14:46:26;12.90;47.90
10538;DHT22;5317;49.048;8.468;2023-01-16T14:49:38;12.90;48.60
10538;DHT22;5317;49.048;8.468;2023-01-16T14:52:45;12.90;49.10
10538;DHT22;5317;49.048;8.468;2023-01-16T14:55:40;12.80;49.80
10538;DHT22;5317;49.048;8.468;2023-01-16T14:58:11;12.70;50.70
10538;DHT22;5317;49.048;8.468;2023-01-16T15:00:40;12.50;51.50
10538;DHT22;5317;49.048;8.468;2023-01-16T15:03:10;12.40;52.80
10538;DHT22;5317;49.048;8.468;2023-01-16T15:05:45;12.30;54.10
10538;DHT22;5317;49.048;8.468;2023-01-16T15:08:23;12.20;55.30
10538;DHT22;5317;49.048;8.468;2023-01-16T15:10:52;12.00;56.90
10538;DHT22;5317;49.048;8.468;2023-01-16T15:13:24;11.90;57.10
10538;DHT22;5317;49.048;8.468;2023-01-16T15:15:54;11.80;58.10
10538;DHT22;5317;49.048;8.468;2023-01-16T15:18:23;11.70;58.60
10538;DHT22;5317;49.048;8.468;2023-01-16T15:21:12;11.50;58.80
10538;DHT22;5317;49.048;8.468;2023-01-16T15:23:59;11.40;60.00
10538;DHT22;5317;49.048;8.468;2023-01-16T15:26:51;11.40;60.00
10538;DHT22;5317;49.048;8.468;2023-01-16T15:29:43;11.30;59.90
10538;DHT22;5317;49.048;8.468;2023-01-16T15:32:14;11.30;60.20
10538;DHT22;5317;49.048;8.468;2023-01-16T15:34:44;11.40;59.80
10538;DHT22;5317;49.048;8.468;2023-01-16T15:37:20;11.40;59.50
10538;DHT22;5317;49.048;8.468;2023-01-16T15:39:49;11.50;60.10
10538;DHT22;5317;49.048;8.468;2023-01-16T15:42:20;11.40;59.20
10538;DHT22;5317;49.048;8.468;2023-01-16T15:45:16;11.30;59.50
10538;DHT22;5317;49.048;8.468;2023-01-16T15:48:27;11.30;60.00
10538;DHT22;5317;49.048;8.468;2023-01-16T15:50:57;11.20;60.20
10538;DHT22;5317;49.048;8.468;2023-01-16T15:53:30;11.20;60.50
10538;DHT22;5317;49.048;8.468;2023-01-16T15:56:04;11.20;60.70
10538;DHT22;5317;49.048;8.468;2023-01-16T15:58:40;11.10;61.50
10538;DHT22;5317;49.048;8.468;2023-01-16T16:01:08;11.00;61.90
10538;DHT22;5317;49.048;8.468;2023-01-16T16:03:39;10.90;61.40
10538;DHT22;5317;49.048;8.468;2023-01-16T16:06:10;10.90;61.60
10538;DHT22;5317;49.048;8.468;2023-01-16T16:08:45;10.80;61.90
10538;DHT22;5317;49.048;8.468;2023-01-16T16:11:22;10.80;62.90
10538;DHT22;5317;49.048;8.468;2023-01-16T16:14:12;10.80;62.60
10538;DHT22;5317;49.048;8.468;2023-01-16T16:17:02;10.70;63.60
10538;DHT22;5317;49.048;8.468;2023-01-16T16:19:47;10.60;63.60
10538;DHT22;5317;49.048;8.468;2023-01-16T16:22:21;10.40;63.90
10538;DHT22;5317;49.048;8.468;2023-01-16T16:25:08;10.40;64.40
10538;DHT22;5317;49.048;8.468;2023-01-16T16:27:54;10.40;64.50
10538;DHT22;5317;49.048;8.468;2023-01-16T16:30:24;10.40;64.90
10538;DHT22;5317;49.048;8.468;2023-01-16T16:32:52;10.40;64.60
10538;DHT22;5317;49.048;8.468;2023-01-16T16:35:25;10.40;64.80
10538;DHT22;5317;49.048;8.468;2023-01-16T16:37:53;10.30;64.70
10538;DHT22;5317;49.048;8.468;2023-01-16T16:40:21;10.20;65.60
10538;DHT22;5317;49.048;8.468;2023-01-16T16:42:56;10.30;65.80
10538;DHT22;5317;49.048;8.468;2023-01-16T16:45:29;10.30;66.00
10538;DHT22;5317;49.048;8.468;2023-01-16T16:48:25;10.30;66.60
10538;DHT22;5317;49.048;8.468;2023-01-16T16:51:20;10.20;66.00
10538;DHT22;5317;49.048;8.468;2023-01-16T16:53:52;10.20;66.10
10538;DHT22;5317;49.048;8.468;2023-01-16T16:56:22;10.10;66.60
10538;DHT22;5317;49.048;8.468;2023-01-16T16:58:52;10.10;67.20
10538;DHT22;5317;49.048;8.468;2023-01-16T17:01:21;10.10;68.70